createdAt,value
2023-07-25T00:00:48.179Z,14.10
2023-07-25T00:03:15.876Z,12.07
2023-07-25T00:05:43.618Z,8.23
2023-07-25T00:08:11.473Z,7.72
2023-07-25T00:10:39.152Z,10.98
2023-07-25T00:13:06.836Z,7.07
2023-07-25T00:15:34.574Z,7.95
2023-07-25T00:18:02.351Z,12.68
2023-07-25T00:20:30.111Z,14.07
2023-07-25T00:22:57.948Z,9.40
2023-07-25T00:25:26.020Z,9.15
2023-07-25T00:27:54.037Z,10.55
2023-07-25T00:30:21.789Z,8.38
2023-07-25T00:32:49.573Z,10.40
2023-07-25T00:35:17.470Z,8.90
2023-07-25T00:37:45.222Z,9.90
2023-07-25T00:40:13.882Z,7.40
2023-07-25T00:42:41.766Z,10.15
2023-07-25T00:45:10.090Z,8.25
2023-07-25T00:47:37.878Z,13.20
2023-07-25T00:50:06.061Z,10.77
2023-07-25T00:52:33.963Z,7.63
2023-07-25T00:55:01.899Z,9.23
2023-07-25T00:57:32.052Z,9.73
2023-07-25T00:59:59.835Z,10.68
2023-07-25T01:02:27.772Z,11.40
2023-07-25T01:04:55.623Z,9.00
2023-07-25T01:07:23.486Z,8.85
2023-07-25T01:09:51.198Z,10.50
2023-07-25T01:12:18.912Z,8.35
2023-07-25T01:14:46.734Z,6.95
2023-07-25T01:17:18.780Z,7.07
2023-07-25T01:19:50.069Z,12.95
2023-07-25T01:22:17.876Z,8.68
2023-07-25T01:24:47.822Z,8.13
2023-07-25T01:27:16.403Z,9.07
2023-07-25T01:29:44.524Z,7.18
2023-07-25T01:32:12.557Z,7.25
2023-07-25T01:34:40.738Z,10.73
2023-07-25T01:37:08.966Z,9.80
2023-07-25T01:39:36.841Z,10.73
2023-07-25T01:42:04.907Z,8.65
2023-07-25T01:44:32.692Z,10.70
2023-07-25T01:47:00.615Z,9.68
2023-07-25T01:49:28.346Z,9.35
2023-07-25T01:51:56.039Z,7.90
2023-07-25T01:54:24.283Z,10.57
2023-07-25T01:56:52.139Z,8.60
2023-07-25T01:59:20.963Z,10.48
2023-07-25T02:01:48.837Z,8.85
2023-07-25T02:04:16.580Z,16.35
2023-07-25T02:06:44.348Z,12.18
2023-07-25T02:09:12.099Z,11.10
2023-07-25T02:11:39.831Z,9.27
2023-07-25T02:14:07.585Z,7.68
2023-07-25T02:16:37.978Z,10.40
2023-07-25T02:19:05.928Z,10.32
2023-07-25T02:21:34.225Z,8.15
2023-07-25T02:24:02.118Z,7.57
2023-07-25T02:26:29.855Z,8.65
2023-07-25T02:28:58.259Z,8.82
2023-07-25T02:31:26.057Z,10.25
2023-07-25T02:33:53.780Z,7.78
2023-07-25T02:36:21.500Z,9.35
2023-07-25T02:38:49.424Z,10.43
2023-07-25T02:41:18.294Z,8.50
2023-07-25T02:43:46.808Z,8.43
2023-07-25T02:46:14.694Z,11.10
2023-07-25T02:48:42.451Z,9.43
2023-07-25T02:51:11.170Z,8.95
2023-07-25T02:53:38.932Z,7.55
2023-07-25T02:56:06.626Z,9.93
2023-07-25T02:58:34.381Z,12.35
2023-07-25T03:01:02.183Z,11.18
2023-07-25T03:03:30.048Z,10.48
2023-07-25T03:05:58.538Z,9.35
2023-07-25T03:08:26.300Z,13.00
2023-07-25T03:10:54.059Z,10.45
2023-07-25T03:13:21.877Z,9.60
2023-07-25T03:15:49.649Z,12.38
2023-07-25T03:18:17.396Z,10.43
2023-07-25T03:20:45.146Z,11.95
2023-07-25T03:23:12.850Z,13.52
2023-07-25T03:25:40.693Z,15.60
2023-07-25T03:28:08.686Z,11.70
2023-07-25T03:30:36.860Z,11.13
2023-07-25T03:33:04.796Z,8.52
2023-07-25T03:35:32.588Z,9.98
2023-07-25T03:38:01.467Z,9.32
2023-07-25T03:40:29.537Z,9.70
2023-07-25T03:42:57.281Z,8.93
2023-07-25T03:45:25.178Z,11.85
2023-07-25T03:47:53.739Z,10.38
2023-07-25T03:50:21.657Z,11.50
2023-07-25T03:52:49.399Z,12.23
2023-07-25T03:55:17.284Z,13.30
2023-07-25T03:57:45.304Z,8.90
2023-07-25T04:00:13.758Z,8.77
2023-07-25T04:02:41.528Z,9.23
2023-07-25T04:05:09.489Z,11.45
2023-07-25T04:07:37.251Z,10.18
2023-07-25T04:10:05.650Z,10.15
2023-07-25T04:12:33.448Z,11.60
2023-07-25T04:15:01.180Z,9.10
2023-07-25T04:17:29.007Z,7.68
2023-07-25T04:19:56.804Z,7.68
2023-07-25T04:22:24.570Z,8.45
2023-07-25T04:24:52.282Z,11.48
2023-07-25T04:27:20.004Z,11.05
2023-07-25T04:29:47.759Z,12.15
2023-07-25T04:32:15.713Z,13.30
2023-07-25T04:34:43.492Z,13.07
2023-07-25T04:37:11.331Z,8.25
2023-07-25T04:39:39.132Z,10.63
2023-07-25T04:42:07.488Z,10.77
2023-07-25T04:44:35.286Z,9.70
2023-07-25T04:47:03.227Z,10.35
2023-07-25T04:49:31.010Z,9.55
2023-07-25T04:51:58.707Z,11.02
2023-07-25T04:54:26.421Z,9.82
2023-07-25T04:56:54.179Z,11.80
2023-07-25T04:59:21.901Z,11.60
2023-07-25T05:01:49.726Z,13.32
2023-07-25T05:04:17.481Z,12.45
2023-07-25T05:06:45.323Z,12.13
2023-07-25T05:09:13.813Z,12.23
2023-07-25T05:11:41.593Z,10.00
2023-07-25T05:14:09.303Z,13.00
2023-07-25T05:16:37.010Z,13.88
2023-07-25T05:19:04.760Z,14.13
2023-07-25T05:21:32.690Z,13.20
2023-07-25T05:24:00.731Z,11.02
2023-07-25T05:26:28.571Z,15.73
2023-07-25T05:28:57.710Z,12.00
2023-07-25T05:31:25.746Z,14.23
2023-07-25T05:33:53.474Z,14.15
2023-07-25T05:36:21.191Z,13.20
2023-07-25T05:38:48.899Z,12.10
2023-07-25T05:41:16.688Z,13.53
2023-07-25T05:43:44.659Z,15.43
2023-07-25T05:46:14.058Z,15.10
2023-07-25T05:48:41.832Z,15.55
2023-07-25T05:51:10.974Z,12.02
2023-07-25T05:53:38.703Z,14.32
2023-07-25T05:56:06.416Z,13.25
2023-07-25T05:58:34.132Z,11.35
2023-07-25T06:01:02.088Z,15.40
2023-07-25T06:03:29.895Z,15.45
2023-07-25T06:05:57.627Z,11.85
2023-07-25T06:08:25.335Z,12.82
2023-07-25T06:10:53.067Z,12.77
2023-07-25T06:13:22.076Z,15.18
2023-07-25T06:15:50.638Z,15.07
2023-07-25T06:18:18.436Z,12.75
2023-07-25T06:20:49.204Z,13.93
2023-07-25T06:23:17.026Z,8.73
2023-07-25T06:25:44.791Z,13.98
2023-07-25T06:28:16.349Z,8.52
2023-07-25T06:30:44.713Z,13.05
2023-07-25T06:33:15.108Z,9.88
2023-07-25T06:35:42.860Z,16.20
2023-07-25T06:38:10.760Z,14.20
2023-07-25T06:40:38.503Z,14.00
2023-07-25T06:43:06.374Z,12.75
2023-07-25T06:45:34.211Z,13.05
2023-07-25T06:48:03.035Z,12.48
2023-07-25T06:50:33.737Z,11.25
2023-07-25T06:53:01.577Z,12.40
2023-07-25T06:55:29.353Z,10.73
2023-07-25T06:57:57.120Z,12.63
2023-07-25T07:00:24.876Z,12.13
2023-07-25T07:02:52.739Z,14.20
2023-07-25T07:05:29.167Z,15.40
2023-07-25T07:07:58.269Z,15.43
2023-07-25T07:10:26.018Z,10.10
2023-07-25T07:12:54.977Z,15.30
2023-07-25T07:15:25.362Z,11.45
2023-07-25T07:17:54.057Z,18.98
2023-07-25T07:20:22.502Z,15.35
2023-07-25T07:22:50.448Z,13.60
2023-07-25T07:25:18.243Z,12.45
2023-07-25T07:27:45.966Z,13.27
2023-07-25T07:30:13.814Z,12.60
2023-07-25T07:32:41.547Z,14.15
2023-07-25T07:35:09.507Z,11.70
2023-07-25T07:37:38.353Z,9.57
2023-07-25T07:40:06.949Z,13.25
2023-07-25T07:42:34.691Z,12.75
2023-07-25T07:45:02.433Z,12.18
2023-07-25T07:47:30.219Z,14.32
2023-07-25T07:49:58.012Z,14.18
2023-07-25T07:52:37.362Z,9.63
2023-07-25T07:55:11.693Z,13.57
2023-07-25T07:57:43.669Z,10.32
2023-07-25T08:00:13.023Z,10.80
2023-07-25T08:02:41.080Z,6.70
2023-07-25T08:05:09.239Z,8.23
2023-07-25T08:07:37.232Z,11.68
2023-07-25T08:10:05.506Z,7.28
2023-07-25T08:12:33.841Z,10.13
2023-07-25T08:15:01.929Z,8.95
2023-07-25T08:17:30.084Z,9.00
2023-07-25T08:19:57.882Z,9.13
2023-07-25T08:22:25.749Z,8.23
2023-07-25T08:24:55.171Z,10.00
2023-07-25T08:27:23.037Z,9.95
2023-07-25T08:29:50.855Z,10.48
2023-07-25T08:32:18.983Z,7.45
2023-07-25T08:34:46.849Z,12.35
2023-07-25T08:37:14.595Z,8.50
2023-07-25T08:39:42.377Z,7.35
2023-07-25T08:42:12.458Z,8.40
2023-07-25T08:44:41.429Z,7.47
2023-07-25T08:47:19.209Z,10.32
2023-07-25T08:49:49.067Z,12.73
2023-07-25T08:52:19.207Z,13.95
2023-07-25T08:54:49.612Z,9.80
2023-07-25T08:57:19.874Z,8.23
2023-07-25T08:59:51.288Z,13.30
2023-07-25T09:02:19.461Z,9.48
2023-07-25T09:04:48.356Z,10.57
2023-07-25T09:07:16.208Z,9.60
2023-07-25T09:09:43.934Z,12.95
2023-07-25T09:12:11.952Z,11.63
2023-07-25T09:14:40.874Z,6.95
2023-07-25T09:17:08.874Z,5.38
2023-07-25T09:19:36.616Z,7.18
2023-07-25T09:22:04.534Z,8.43
2023-07-25T09:24:40.202Z,8.50
2023-07-25T09:27:18.309Z,11.23
2023-07-25T09:29:47.794Z,9.32
2023-07-25T09:32:25.296Z,9.60
2023-07-25T09:35:00.885Z,7.95
2023-07-25T09:37:30.240Z,8.52
2023-07-25T09:39:59.382Z,7.63
2023-07-25T09:42:29.020Z,11.90
2023-07-25T09:44:58.032Z,7.57
2023-07-25T09:47:27.809Z,11.35
2023-07-25T09:49:57.037Z,12.05
2023-07-25T09:52:25.053Z,10.68
2023-07-25T09:54:52.873Z,11.65
2023-07-25T09:57:20.855Z,5.93
2023-07-25T09:59:50.772Z,7.22
2023-07-25T10:02:19.181Z,7.80
2023-07-25T10:04:48.349Z,10.63
2023-07-25T10:07:16.581Z,9.52
2023-07-25T10:09:47.444Z,9.85
2023-07-25T10:12:15.293Z,5.28
2023-07-25T10:14:43.071Z,6.65
2023-07-25T10:17:11.004Z,8.73
2023-07-25T10:19:54.544Z,9.02
2023-07-25T10:22:39.899Z,9.70
2023-07-25T10:25:22.423Z,5.75
2023-07-25T10:28:01.013Z,8.13
2023-07-25T10:30:34.311Z,7.22
2023-07-25T10:33:06.027Z,7.28
2023-07-25T10:35:43.879Z,7.32
2023-07-25T10:38:13.650Z,5.45
2023-07-25T10:40:56.233Z,8.60
2023-07-25T10:43:29.341Z,4.85
2023-07-25T10:46:01.001Z,8.88
2023-07-25T10:48:36.442Z,5.40
2023-07-25T10:51:07.871Z,8.85
2023-07-25T10:53:36.085Z,7.47
2023-07-25T10:56:07.702Z,6.28
2023-07-25T10:59:03.236Z,7.65
2023-07-25T11:01:48.227Z,6.20
2023-07-25T11:04:32.021Z,6.03
2023-07-25T11:07:14.564Z,7.53
2023-07-25T11:09:43.489Z,8.85
2023-07-25T11:12:12.414Z,5.95
2023-07-25T11:14:44.573Z,7.55
2023-07-25T11:17:13.789Z,7.55
2023-07-25T11:19:41.661Z,7.47
2023-07-25T11:22:11.148Z,7.30
2023-07-25T11:24:47.396Z,5.28
2023-07-25T11:29:43.277Z,3.65
2023-07-25T11:32:11.093Z,3.80
2023-07-25T11:34:39.041Z,2.53
2023-07-25T11:37:13.327Z,7.78
2023-07-25T11:39:41.244Z,4.22
2023-07-25T11:42:09.807Z,7.03
2023-07-25T11:44:38.455Z,6.78
2023-07-25T11:47:06.651Z,8.20
2023-07-25T11:49:49.763Z,4.10
2023-07-25T11:52:23.323Z,8.77
2023-07-25T11:54:51.482Z,5.13
2023-07-25T11:57:19.363Z,4.95
2023-07-25T11:59:47.278Z,6.10
2023-07-25T12:02:15.186Z,4.50
2023-07-25T12:04:44.914Z,6.88
2023-07-25T12:07:15.878Z,6.13
2023-07-25T12:09:51.494Z,5.75
2023-07-25T12:12:19.997Z,3.00
2023-07-25T12:15:02.494Z,3.65
2023-07-25T12:17:44.476Z,5.43
2023-07-25T12:20:16.842Z,6.93
2023-07-25T12:22:45.577Z,3.38
2023-07-25T12:25:17.894Z,2.40
2023-07-25T12:27:47.441Z,5.40
2023-07-25T12:30:15.831Z,2.80
2023-07-25T12:32:43.711Z,6.45
2023-07-25T12:35:12.835Z,3.47
2023-07-25T12:37:40.578Z,5.03
2023-07-25T12:40:09.108Z,5.38
2023-07-25T12:42:36.873Z,3.55
2023-07-25T12:45:09.555Z,8.43
2023-07-25T12:47:38.854Z,7.45
2023-07-25T12:50:07.014Z,3.15
2023-07-25T12:52:34.735Z,4.85
2023-07-25T12:55:02.474Z,5.85
2023-07-25T12:57:30.680Z,4.43
2023-07-25T12:59:58.457Z,5.30
2023-07-25T13:02:26.431Z,5.18
2023-07-25T13:04:54.278Z,4.40
2023-07-25T13:07:22.016Z,4.47
2023-07-25T13:09:53.420Z,6.05
2023-07-25T13:12:21.128Z,5.35
2023-07-25T13:14:49.557Z,4.72
2023-07-25T13:17:17.413Z,7.43
2023-07-25T13:19:45.221Z,5.97
2023-07-25T13:22:12.999Z,6.82
2023-07-25T13:24:40.762Z,3.50
2023-07-25T13:27:08.673Z,4.55
2023-07-25T13:29:36.492Z,10.52
2023-07-25T13:32:04.486Z,5.70
2023-07-25T13:34:32.272Z,6.10
2023-07-25T13:37:00.011Z,5.07
2023-07-25T13:39:27.796Z,6.75
2023-07-25T13:41:55.597Z,5.40
2023-07-25T13:44:23.496Z,5.53
2023-07-25T13:46:51.544Z,4.70
2023-07-25T13:49:19.383Z,6.72
2023-07-25T13:51:47.117Z,6.53
2023-07-25T13:54:15.458Z,5.07
2023-07-25T13:56:45.060Z,6.97
2023-07-25T13:59:13.839Z,6.63
2023-07-25T14:01:41.847Z,7.28
2023-07-25T14:04:10.410Z,8.85
2023-07-25T14:06:38.297Z,7.03
2023-07-25T14:09:06.172Z,7.65
2023-07-25T14:11:34.174Z,7.07
2023-07-25T14:14:02.317Z,4.75
2023-07-25T14:16:30.144Z,6.93
2023-07-25T14:18:57.928Z,6.15
2023-07-25T14:21:25.800Z,7.97
2023-07-25T14:23:53.539Z,6.22
2023-07-25T14:26:21.469Z,5.95
2023-07-25T14:28:49.281Z,7.60
2023-07-25T14:31:17.062Z,3.75
2023-07-25T14:33:44.989Z,7.10
2023-07-25T14:36:12.841Z,7.53
2023-07-25T14:38:41.491Z,5.95
2023-07-25T14:41:09.435Z,7.95
2023-07-25T14:43:37.262Z,5.65
2023-07-25T14:46:05.019Z,10.07
2023-07-25T14:48:32.883Z,5.43
2023-07-25T14:51:01.008Z,6.00
2023-07-25T14:53:28.954Z,7.63
2023-07-25T14:55:56.794Z,8.60
2023-07-25T14:58:24.551Z,4.03
2023-07-25T15:00:52.447Z,7.13
2023-07-25T15:03:20.533Z,4.20
2023-07-25T15:05:48.426Z,4.22
2023-07-25T15:08:18.407Z,6.15
2023-07-25T15:10:46.507Z,5.85
2023-07-25T15:13:14.234Z,5.72
2023-07-25T15:15:42.014Z,4.82
2023-07-25T15:18:09.788Z,6.25
2023-07-25T15:20:38.055Z,3.25
2023-07-25T15:23:05.797Z,3.78
2023-07-25T15:25:33.548Z,3.15
2023-07-25T15:28:01.344Z,4.63
2023-07-25T15:30:29.110Z,2.45
2023-07-25T15:32:56.966Z,5.57
2023-07-25T15:35:27.926Z,4.32
2023-07-25T15:37:58.783Z,7.47
2023-07-25T15:40:26.591Z,3.50
2023-07-25T15:42:54.395Z,2.70
2023-07-25T15:45:22.114Z,3.25
2023-07-25T15:47:49.928Z,3.42
2023-07-25T15:50:19.246Z,3.40
2023-07-25T15:52:47.268Z,4.65
2023-07-25T15:55:15.011Z,6.50
2023-07-25T15:57:42.751Z,3.05
2023-07-25T16:00:12.192Z,2.95
2023-07-25T16:02:39.989Z,3.70
2023-07-25T16:05:08.145Z,4.85
2023-07-25T16:07:36.112Z,6.95
2023-07-25T16:10:06.348Z,3.97
2023-07-25T16:12:34.920Z,7.35
2023-07-25T16:15:04.297Z,4.10
2023-07-25T16:17:32.565Z,6.05
2023-07-25T16:20:04.345Z,4.97
2023-07-25T16:22:32.687Z,3.72
2023-07-25T16:25:00.537Z,4.32
2023-07-25T16:27:28.308Z,5.57
2023-07-25T16:29:56.258Z,8.68
2023-07-25T16:32:26.174Z,2.53
2023-07-25T16:34:53.998Z,5.45
2023-07-25T16:37:21.757Z,4.00
2023-07-25T16:39:49.506Z,7.30
2023-07-25T16:42:17.277Z,5.18
2023-07-25T16:44:45.028Z,4.50
2023-07-25T16:47:12.788Z,5.60
2023-07-25T16:49:40.546Z,7.97
2023-07-25T16:52:08.313Z,6.85
2023-07-25T16:54:36.066Z,4.32
2023-07-25T16:57:04.001Z,3.67
2023-07-25T16:59:31.755Z,6.75
2023-07-25T17:02:01.010Z,6.18
2023-07-25T17:04:28.969Z,3.72
2023-07-25T17:06:56.832Z,9.32
2023-07-25T17:09:24.650Z,4.80
2023-07-25T17:11:52.456Z,6.07
2023-07-25T17:14:20.213Z,4.13
2023-07-25T17:16:47.953Z,4.88
2023-07-25T17:19:15.726Z,4.47
2023-07-25T17:21:43.692Z,5.78
2023-07-25T17:24:11.605Z,4.57
2023-07-25T17:26:39.373Z,5.32
2023-07-25T17:29:07.249Z,13.60
2023-07-25T17:31:35.423Z,4.95
2023-07-25T17:34:04.674Z,5.93
2023-07-25T17:36:32.512Z,3.85
2023-07-25T17:39:00.310Z,10.82
2023-07-25T17:41:30.152Z,10.02
2023-07-25T17:43:58.366Z,7.25
2023-07-25T17:46:26.082Z,2.65
2023-07-25T17:48:54.559Z,2.63
2023-07-25T17:51:22.588Z,6.13
2023-07-25T17:53:50.430Z,5.07
2023-07-25T17:56:18.347Z,5.70
2023-07-25T17:58:46.156Z,4.88
2023-07-25T18:01:14.874Z,8.00
2023-07-25T18:03:43.214Z,5.78
2023-07-25T18:06:11.087Z,4.43
2023-07-25T18:08:39.393Z,7.72
2023-07-25T18:11:07.222Z,3.85
2023-07-25T18:13:35.013Z,5.68
2023-07-25T18:16:02.908Z,4.07
2023-07-25T18:18:30.771Z,3.95
2023-07-25T18:20:58.511Z,2.42
2023-07-25T18:23:26.324Z,5.55
2023-07-25T18:25:58.624Z,4.65
2023-07-25T18:28:26.868Z,5.25
2023-07-25T18:30:54.835Z,6.00
2023-07-25T18:33:22.630Z,6.55
2023-07-25T18:35:50.396Z,4.40
2023-07-25T18:38:18.127Z,5.13
2023-07-25T18:40:46.212Z,7.38
2023-07-25T18:43:22.494Z,4.43
2023-07-25T18:48:18.044Z,4.10
2023-07-25T18:50:45.855Z,3.83
2023-07-25T18:53:13.620Z,5.45
2023-07-25T18:55:41.861Z,8.75
2023-07-25T18:58:09.617Z,8.00
2023-07-25T19:00:37.841Z,4.43
2023-07-25T19:03:06.047Z,6.20
2023-07-25T19:05:33.928Z,5.35
2023-07-25T19:08:01.898Z,9.43
2023-07-25T19:10:29.768Z,5.00
2023-07-25T19:12:57.634Z,5.32
2023-07-25T19:15:25.327Z,5.13
2023-07-25T19:17:53.124Z,5.57
2023-07-25T19:20:20.959Z,4.80
2023-07-25T19:22:48.730Z,7.47
2023-07-25T19:25:16.532Z,9.20
2023-07-25T19:27:46.549Z,8.27
2023-07-25T19:30:14.326Z,4.68
2023-07-25T19:32:42.076Z,6.57
2023-07-25T19:35:10.494Z,6.55
2023-07-25T19:37:38.441Z,2.67
2023-07-25T19:40:07.667Z,8.18
2023-07-25T19:42:36.242Z,6.35
2023-07-25T19:45:05.251Z,7.68
2023-07-25T19:47:33.075Z,4.40
2023-07-25T19:50:00.881Z,4.72
2023-07-25T19:52:28.668Z,5.53
2023-07-25T19:54:56.398Z,5.63
2023-07-25T19:57:24.192Z,4.38
2023-07-25T19:59:51.934Z,9.00
2023-07-25T20:02:19.683Z,5.05
2023-07-25T20:04:47.649Z,8.52
2023-07-25T20:07:15.478Z,4.32
2023-07-25T20:09:43.231Z,5.55
2023-07-25T20:12:11.112Z,4.85
2023-07-25T20:14:38.856Z,6.90
2023-07-25T20:17:06.845Z,5.55
2023-07-25T20:19:34.619Z,9.32
2023-07-25T20:22:02.391Z,9.73
2023-07-25T20:24:30.264Z,4.60
2023-07-25T20:26:58.289Z,7.00
2023-07-25T20:29:28.043Z,8.18
2023-07-25T20:31:58.993Z,5.10
2023-07-25T20:34:26.752Z,5.03
2023-07-25T20:36:55.480Z,7.95
2023-07-25T20:39:23.349Z,7.68
2023-07-25T20:41:51.807Z,6.70
2023-07-25T20:44:19.569Z,7.45
2023-07-25T20:46:47.350Z,11.18
2023-07-25T20:49:15.118Z,9.30
2023-07-25T20:51:42.938Z,8.15
2023-07-25T20:54:11.001Z,6.63
2023-07-25T20:56:38.797Z,7.95
2023-07-25T20:59:06.599Z,8.45
2023-07-25T21:01:34.480Z,7.68
2023-07-25T21:04:02.286Z,10.02
2023-07-25T21:06:30.518Z,6.35
2023-07-25T21:09:01.008Z,5.18
2023-07-25T21:11:29.824Z,7.63
2023-07-25T21:13:57.987Z,6.43
2023-07-25T21:16:26.156Z,5.15
2023-07-25T21:18:54.022Z,5.35
2023-07-25T21:21:21.840Z,5.68
2023-07-25T21:23:49.933Z,8.85
2023-07-25T21:26:17.852Z,5.25
2023-07-25T21:28:45.606Z,6.32
2023-07-25T21:31:13.430Z,4.53
2023-07-25T21:33:41.512Z,5.25
2023-07-25T21:36:11.986Z,7.47
2023-07-25T21:38:41.294Z,4.85
2023-07-25T21:41:14.679Z,6.25
2023-07-25T21:43:43.358Z,5.47
2023-07-25T21:46:11.398Z,4.57
2023-07-25T21:48:39.290Z,6.93
2023-07-25T21:51:07.806Z,6.45
2023-07-25T21:53:35.579Z,3.72
2023-07-25T21:56:03.473Z,5.90
2023-07-25T21:58:31.249Z,4.57
2023-07-25T22:00:59.851Z,3.55
2023-07-25T22:03:31.616Z,8.27
2023-07-25T22:06:01.492Z,5.57
2023-07-25T22:08:29.280Z,10.38
2023-07-25T22:10:57.250Z,7.00
2023-07-25T22:13:25.463Z,4.53
2023-07-25T22:15:53.789Z,7.07
2023-07-25T22:18:21.849Z,3.72
2023-07-25T22:20:52.806Z,4.65
2023-07-25T22:23:21.988Z,4.53
2023-07-25T22:25:50.002Z,5.68
2023-07-25T22:28:17.739Z,4.28
2023-07-25T22:30:45.515Z,4.80
2023-07-25T22:33:13.238Z,5.32
2023-07-25T22:35:40.988Z,6.50
2023-07-25T22:38:08.698Z,6.35
2023-07-25T22:40:36.547Z,3.75
2023-07-25T22:43:04.506Z,5.93
2023-07-25T22:45:32.257Z,5.80
2023-07-25T22:48:00.142Z,3.78
2023-07-25T22:50:27.931Z,4.63
2023-07-25T22:52:55.666Z,3.78
2023-07-25T22:55:23.562Z,4.38
2023-07-25T22:57:51.318Z,4.80
2023-07-25T23:00:19.076Z,4.30
2023-07-25T23:02:47.105Z,5.38
2023-07-25T23:05:15.044Z,5.80
2023-07-25T23:07:42.838Z,4.07
2023-07-25T23:10:10.721Z,6.72
2023-07-25T23:12:38.466Z,5.53
2023-07-25T23:15:06.659Z,7.85
2023-07-25T23:17:34.598Z,2.65
2023-07-25T23:20:02.583Z,2.85
2023-07-25T23:22:30.313Z,5.82
2023-07-25T23:24:58.936Z,7.18
2023-07-25T23:27:27.135Z,8.63
2023-07-25T23:29:54.899Z,6.60
2023-07-25T23:32:22.729Z,7.20
2023-07-25T23:34:51.760Z,4.47
2023-07-25T23:37:19.566Z,4.47
2023-07-25T23:39:47.637Z,3.85
2023-07-25T23:42:16.095Z,4.40
2023-07-25T23:44:43.981Z,7.20
2023-07-25T23:47:15.284Z,4.43
2023-07-25T23:49:43.107Z,5.65
2023-07-25T23:52:10.868Z,5.20
2023-07-25T23:54:38.613Z,4.53
2023-07-25T23:57:06.808Z,5.95
2023-07-25T23:59:35.806Z,3.65
